sensor_id;sensor_type;location;lat;lon;timestamp;P1;durP1;ratioP1;P2;durP2;ratioP2
58260;SDS011;44058;52.898;6.502;2023-01-28T00:01:13;8.63;;;7.72;;
58260;SDS011;44058;52.898;6.502;2023-01-28T00:03:40;7.65;;;6.95;;
58260;SDS011;44058;52.898;6.502;2023-01-28T00:06:07;8.07;;;7.27;;
58260;SDS011;44058;52.898;6.502;2023-01-28T00:08:33;9.38;;;7.28;;
58260;SDS011;44058;52.898;6.502;2023-01-28T00:11:00;7.60;;;6.85;;
58260;SDS011;44058;52.898;6.502;2023-01-28T00:13:27;8.40;;;7.50;;
58260;SDS011;44058;52.898;6.502;2023-01-28T00:15:54;7.63;;;6.93;;
58260;SDS011;44058;52.898;6.502;2023-01-28T00:18:20;8.07;;;7.23;;
58260;SDS011;44058;52.898;6.502;2023-01-28T00:20:54;7.82;;;7.10;;
58260;SDS011;44058;52.898;6.502;2023-01-28T00:23:20;8.40;;;7.70;;
58260;SDS011;44058;52.898;6.502;2023-01-28T00:25:46;8.15;;;7.45;;
58260;SDS011;44058;52.898;6.502;2023-01-28T00:28:13;7.90;;;7.13;;
58260;SDS011;44058;52.898;6.502;2023-01-28T00:30:39;8.93;;;8.07;;
58260;SDS011;44058;52.898;6.502;2023-01-28T00:33:05;8.48;;;7.68;;
58260;SDS011;44058;52.898;6.502;2023-01-28T00:35:31;8.23;;;7.40;;
58260;SDS011;44058;52.898;6.502;2023-01-28T00:37:57;9.13;;;8.23;;
58260;SDS011;44058;52.898;6.502;2023-01-28T00:40:24;8.82;;;8.02;;
58260;SDS011;44058;52.898;6.502;2023-01-28T00:42:50;8.52;;;7.72;;
58260;SDS011;44058;52.898;6.502;2023-01-28T00:45:16;9.73;;;8.60;;
58260;SDS011;44058;52.898;6.502;2023-01-28T00:47:42;8.02;;;7.32;;
58260;SDS011;44058;52.898;6.502;2023-01-28T00:50:09;10.67;;;8.20;;
58260;SDS011;44058;52.898;6.502;2023-01-28T00:52:35;8.57;;;7.78;;
58260;SDS011;44058;52.898;6.502;2023-01-28T00:55:01;9.45;;;8.55;;
58260;SDS011;44058;52.898;6.502;2023-01-28T00:57:28;9.13;;;8.23;;
58260;SDS011;44058;52.898;6.502;2023-01-28T00:59:54;8.88;;;7.97;;
58260;SDS011;44058;52.898;6.502;2023-01-28T01:02:21;9.77;;;8.77;;
58260;SDS011;44058;52.898;6.502;2023-01-28T01:04:47;9.45;;;8.45;;
58260;SDS011;44058;52.898;6.502;2023-01-28T01:07:23;9.60;;;8.60;;
58260;SDS011;44058;52.898;6.502;2023-01-28T01:10:10;9.60;;;8.50;;
58260;SDS011;44058;52.898;6.502;2023-01-28T01:12:37;9.30;;;8.40;;
58260;SDS011;44058;52.898;6.502;2023-01-28T01:15:03;9.40;;;8.50;;
58260;SDS011;44058;52.898;6.502;2023-01-28T01:17:33;9.85;;;8.88;;
58260;SDS011;44058;52.898;6.502;2023-01-28T01:20:01;9.60;;;8.70;;
58260;SDS011;44058;52.898;6.502;2023-01-28T01:22:28;10.35;;;9.25;;
58260;SDS011;44058;52.898;6.502;2023-01-28T01:24:55;9.15;;;8.25;;
58260;SDS011;44058;52.898;6.502;2023-01-28T01:27:21;9.60;;;8.70;;
58260;SDS011;44058;52.898;6.502;2023-01-28T01:29:47;9.77;;;8.77;;
58260;SDS011;44058;52.898;6.502;2023-01-28T01:32:13;9.27;;;8.37;;
58260;SDS011;44058;52.898;6.502;2023-01-28T01:34:39;9.33;;;8.43;;
58260;SDS011;44058;52.898;6.502;2023-01-28T01:37:05;9.17;;;8.27;;
58260;SDS011;44058;52.898;6.502;2023-01-28T01:39:33;8.07;;;7.32;;
58260;SDS011;44058;52.898;6.502;2023-01-28T01:41:59;9.63;;;7.87;;
58260;SDS011;44058;52.898;6.502;2023-01-28T01:47:10;8.80;;;8.07;;
58260;SDS011;44058;52.898;6.502;2023-01-28T01:49:36;8.80;;;7.90;;
58260;SDS011;44058;52.898;6.502;2023-01-28T01:52:05;8.45;;;7.55;;
58260;SDS011;44058;52.898;6.502;2023-01-28T01:54:33;9.43;;;8.52;;
58260;SDS011;44058;52.898;6.502;2023-01-28T01:57:02;12.57;;;9.02;;
58260;SDS011;44058;52.898;6.502;2023-01-28T01:59:31;9.15;;;8.25;;
58260;SDS011;44058;52.898;6.502;2023-01-28T02:01:58;9.33;;;8.37;;
58260;SDS011;44058;52.898;6.502;2023-01-28T02:04:25;8.40;;;7.60;;
58260;SDS011;44058;52.898;6.502;2023-01-28T02:06:54;9.20;;;8.18;;
58260;SDS011;44058;52.898;6.502;2023-01-28T02:09:23;8.82;;;7.78;;
58260;SDS011;44058;52.898;6.502;2023-01-28T02:11:51;9.37;;;8.37;;
58260;SDS011;44058;52.898;6.502;2023-01-28T02:16:45;8.70;;;7.90;;
58260;SDS011;44058;52.898;6.502;2023-01-28T02:19:11;8.82;;;8.02;;
58260;SDS011;44058;52.898;6.502;2023-01-28T02:21:55;10.60;;;8.37;;
58260;SDS011;44058;52.898;6.502;2023-01-28T02:34:57;8.50;;;7.70;;
58260;SDS011;44058;52.898;6.502;2023-01-28T02:37:26;8.53;;;7.70;;
58260;SDS011;44058;52.898;6.502;2023-01-28T02:39:56;8.38;;;7.63;;
58260;SDS011;44058;52.898;6.502;2023-01-28T02:44:49;8.40;;;7.57;;
58260;SDS011;44058;52.898;6.502;2023-01-28T02:47:15;7.78;;;7.07;;
58260;SDS011;44058;52.898;6.502;2023-01-28T02:50:01;8.60;;;7.80;;
58260;SDS011;44058;52.898;6.502;2023-01-28T02:52:35;8.67;;;7.83;;
58260;SDS011;44058;52.898;6.502;2023-01-28T02:55:34;8.73;;;7.93;;
58260;SDS011;44058;52.898;6.502;2023-01-28T03:00:32;8.60;;;7.80;;
58260;SDS011;44058;52.898;6.502;2023-01-28T03:05:35;9.10;;;8.23;;
58260;SDS011;44058;52.898;6.502;2023-01-28T03:08:03;8.70;;;7.83;;
58260;SDS011;44058;52.898;6.502;2023-01-28T03:10:52;9.77;;;8.20;;
58260;SDS011;44058;52.898;6.502;2023-01-28T03:13:37;8.67;;;7.87;;
58260;SDS011;44058;52.898;6.502;2023-01-28T03:16:22;8.93;;;8.07;;
58260;SDS011;44058;52.898;6.502;2023-01-28T03:19:07;9.30;;;8.43;;
58260;SDS011;44058;52.898;6.502;2023-01-28T03:21:52;9.32;;;8.43;;
58260;SDS011;44058;52.898;6.502;2023-01-28T03:24:40;9.13;;;8.23;;
58260;SDS011;44058;52.898;6.502;2023-01-28T03:27:44;9.27;;;8.20;;
58260;SDS011;44058;52.898;6.502;2023-01-28T03:31:06;8.87;;;8.07;;
58260;SDS011;44058;52.898;6.502;2023-01-28T03:33:42;9.43;;;8.53;;
58260;SDS011;44058;52.898;6.502;2023-01-28T03:36:27;8.37;;;7.57;;
58260;SDS011;44058;52.898;6.502;2023-01-28T03:39:13;8.93;;;8.03;;
58260;SDS011;44058;52.898;6.502;2023-01-28T03:41:40;9.00;;;8.10;;
58260;SDS011;44058;52.898;6.502;2023-01-28T03:44:06;8.70;;;7.90;;
58260;SDS011;44058;52.898;6.502;2023-01-28T03:46:51;8.07;;;7.27;;
58260;SDS011;44058;52.898;6.502;2023-01-28T03:49:17;10.10;;;8.07;;
58260;SDS011;44058;52.898;6.502;2023-01-28T03:51:43;9.07;;;8.17;;
58260;SDS011;44058;52.898;6.502;2023-01-28T03:54:10;7.97;;;7.17;;
58260;SDS011;44058;52.898;6.502;2023-01-28T03:56:36;8.77;;;7.87;;
58260;SDS011;44058;52.898;6.502;2023-01-28T03:59:05;8.48;;;7.32;;
58260;SDS011;44058;52.898;6.502;2023-01-28T04:01:31;9.63;;;7.33;;
58260;SDS011;44058;52.898;6.502;2023-01-28T04:03:58;8.20;;;7.40;;
58260;SDS011;44058;52.898;6.502;2023-01-28T04:06:24;8.20;;;7.40;;
58260;SDS011;44058;52.898;6.502;2023-01-28T04:08:50;9.03;;;8.13;;
58260;SDS011;44058;52.898;6.502;2023-01-28T04:11:23;8.77;;;7.87;;
58260;SDS011;44058;52.898;6.502;2023-01-28T04:13:50;8.93;;;7.83;;
58260;SDS011;44058;52.898;6.502;2023-01-28T04:16:17;8.73;;;7.83;;
58260;SDS011;44058;52.898;6.502;2023-01-28T04:18:44;9.07;;;7.60;;
58260;SDS011;44058;52.898;6.502;2023-01-28T04:21:10;7.80;;;6.53;;
58260;SDS011;44058;52.898;6.502;2023-01-28T04:23:37;8.43;;;7.53;;
58260;SDS011;44058;52.898;6.502;2023-01-28T04:26:03;8.30;;;7.07;;
58260;SDS011;44058;52.898;6.502;2023-01-28T04:28:29;8.37;;;7.57;;
58260;SDS011;44058;52.898;6.502;2023-01-28T04:30:55;7.70;;;6.90;;
58260;SDS011;44058;52.898;6.502;2023-01-28T04:33:21;9.20;;;7.70;;
58260;SDS011;44058;52.898;6.502;2023-01-28T04:35:47;9.40;;;8.20;;
58260;SDS011;44058;52.898;6.502;2023-01-28T04:38:13;9.40;;;8.13;;
58260;SDS011;44058;52.898;6.502;2023-01-28T04:40:39;9.80;;;7.55;;
58260;SDS011;44058;52.898;6.502;2023-01-28T04:43:06;7.97;;;7.17;;
58260;SDS011;44058;52.898;6.502;2023-01-28T04:45:32;8.33;;;7.03;;
58260;SDS011;44058;52.898;6.502;2023-01-28T04:47:58;8.40;;;7.33;;
58260;SDS011;44058;52.898;6.502;2023-01-28T04:50:25;8.40;;;7.60;;
58260;SDS011;44058;52.898;6.502;2023-01-28T04:52:51;10.07;;;7.83;;
58260;SDS011;44058;52.898;6.502;2023-01-28T04:55:17;8.77;;;7.88;;
58260;SDS011;44058;52.898;6.502;2023-01-28T04:57:43;8.45;;;7.60;;
58260;SDS011;44058;52.898;6.502;2023-01-28T05:00:09;8.67;;;7.37;;
58260;SDS011;44058;52.898;6.502;2023-01-28T05:02:36;8.10;;;7.30;;
58260;SDS011;44058;52.898;6.502;2023-01-28T05:05:03;8.40;;;7.50;;
58260;SDS011;44058;52.898;6.502;2023-01-28T05:09:58;7.70;;;6.87;;
58260;SDS011;44058;52.898;6.502;2023-01-28T05:12:24;8.70;;;7.43;;
58260;SDS011;44058;52.898;6.502;2023-01-28T05:14:51;8.70;;;7.80;;
58260;SDS011;44058;52.898;6.502;2023-01-28T05:17:17;9.00;;;7.17;;
58260;SDS011;44058;52.898;6.502;2023-01-28T05:19:43;8.80;;;7.40;;
58260;SDS011;44058;52.898;6.502;2023-01-28T05:22:10;7.97;;;7.17;;
58260;SDS011;44058;52.898;6.502;2023-01-28T05:24:36;8.53;;;7.67;;
58260;SDS011;44058;52.898;6.502;2023-01-28T05:27:02;9.07;;;7.50;;
58260;SDS011;44058;52.898;6.502;2023-01-28T05:29:28;8.93;;;7.97;;
58260;SDS011;44058;52.898;6.502;2023-01-28T05:31:54;9.37;;;7.63;;
58260;SDS011;44058;52.898;6.502;2023-01-28T05:34:20;8.43;;;7.63;;
58260;SDS011;44058;52.898;6.502;2023-01-28T05:36:46;8.77;;;7.87;;
58260;SDS011;44058;52.898;6.502;2023-01-28T05:39:12;9.03;;;8.13;;
58260;SDS011;44058;52.898;6.502;2023-01-28T05:41:38;8.67;;;7.77;;
58260;SDS011;44058;52.898;6.502;2023-01-28T05:44:05;10.67;;;8.07;;
58260;SDS011;44058;52.898;6.502;2023-01-28T05:46:31;9.73;;;8.73;;
58260;SDS011;44058;52.898;6.502;2023-01-28T05:48:57;9.33;;;8.13;;
58260;SDS011;44058;52.898;6.502;2023-01-28T05:51:23;10.33;;;8.10;;
58260;SDS011;44058;52.898;6.502;2023-01-28T05:53:49;10.17;;;8.33;;
58260;SDS011;44058;52.898;6.502;2023-01-28T05:56:15;9.73;;;8.73;;
58260;SDS011;44058;52.898;6.502;2023-01-28T05:58:42;10.30;;;8.97;;
58260;SDS011;44058;52.898;6.502;2023-01-28T06:01:08;9.17;;;8.27;;
58260;SDS011;44058;52.898;6.502;2023-01-28T06:03:34;9.50;;;8.47;;
58260;SDS011;44058;52.898;6.502;2023-01-28T06:06:01;9.33;;;8.43;;
58260;SDS011;44058;52.898;6.502;2023-01-28T06:08:27;9.77;;;8.77;;
58260;SDS011;44058;52.898;6.502;2023-01-28T06:10:53;9.60;;;8.20;;
58260;SDS011;44058;52.898;6.502;2023-01-28T06:13:19;10.63;;;8.87;;
58260;SDS011;44058;52.898;6.502;2023-01-28T06:15:47;9.27;;;8.30;;
58260;SDS011;44058;52.898;6.502;2023-01-28T06:18:15;9.37;;;8.07;;
58260;SDS011;44058;52.898;6.502;2023-01-28T06:20:41;10.20;;;9.10;;
58260;SDS011;44058;52.898;6.502;2023-01-28T06:23:07;9.83;;;8.80;;
58260;SDS011;44058;52.898;6.502;2023-01-28T06:25:33;11.27;;;8.90;;
58260;SDS011;44058;52.898;6.502;2023-01-28T06:27:59;11.37;;;8.37;;
58260;SDS011;44058;52.898;6.502;2023-01-28T06:30:25;9.83;;;8.43;;
58260;SDS011;44058;52.898;6.502;2023-01-28T06:32:54;8.77;;;7.87;;
58260;SDS011;44058;52.898;6.502;2023-01-28T06:35:21;11.33;;;8.77;;
58260;SDS011;44058;52.898;6.502;2023-01-28T06:37:47;10.40;;;9.30;;
58260;SDS011;44058;52.898;6.502;2023-01-28T06:40:13;9.73;;;8.73;;
58260;SDS011;44058;52.898;6.502;2023-01-28T06:42:39;10.93;;;9.13;;
58260;SDS011;44058;52.898;6.502;2023-01-28T06:45:06;10.77;;;9.67;;
58260;SDS011;44058;52.898;6.502;2023-01-28T06:47:32;9.63;;;8.63;;
58260;SDS011;44058;52.898;6.502;2023-01-28T06:49:58;12.00;;;8.93;;
58260;SDS011;44058;52.898;6.502;2023-01-28T06:52:24;10.83;;;9.20;;
58260;SDS011;44058;52.898;6.502;2023-01-28T06:54:50;10.23;;;8.93;;
58260;SDS011;44058;52.898;6.502;2023-01-28T06:57:16;10.17;;;8.77;;
58260;SDS011;44058;52.898;6.502;2023-01-28T06:59:43;11.80;;;9.23;;
58260;SDS011;44058;52.898;6.502;2023-01-28T07:02:10;9.88;;;8.60;;
58260;SDS011;44058;52.898;6.502;2023-01-28T07:04:37;11.90;;;9.90;;
58260;SDS011;44058;52.898;6.502;2023-01-28T07:07:03;10.20;;;8.87;;
58260;SDS011;44058;52.898;6.502;2023-01-28T07:09:29;10.90;;;9.07;;
58260;SDS011;44058;52.898;6.502;2023-01-28T07:11:55;10.67;;;9.03;;
58260;SDS011;44058;52.898;6.502;2023-01-28T07:14:21;12.00;;;9.43;;
58260;SDS011;44058;52.898;6.502;2023-01-28T07:16:47;11.33;;;9.53;;
58260;SDS011;44058;52.898;6.502;2023-01-28T07:19:13;11.90;;;9.67;;
58260;SDS011;44058;52.898;6.502;2023-01-28T07:21:39;10.57;;;8.50;;
58260;SDS011;44058;52.898;6.502;2023-01-28T07:24:05;11.60;;;9.50;;
58260;SDS011;44058;52.898;6.502;2023-01-28T07:26:32;10.47;;;8.50;;
58260;SDS011;44058;52.898;6.502;2023-01-28T07:28:58;11.13;;;8.27;;
58260;SDS011;44058;52.898;6.502;2023-01-28T07:31:24;9.80;;;8.07;;
58260;SDS011;44058;52.898;6.502;2023-01-28T07:33:50;9.43;;;7.57;;
58260;SDS011;44058;52.898;6.502;2023-01-28T07:36:16;9.20;;;8.20;;
58260;SDS011;44058;52.898;6.502;2023-01-28T07:38:42;16.57;;;9.60;;
58260;SDS011;44058;52.898;6.502;2023-01-28T07:41:08;12.37;;;9.60;;
58260;SDS011;44058;52.898;6.502;2023-01-28T07:43:34;11.07;;;9.03;;
58260;SDS011;44058;52.898;6.502;2023-01-28T07:46:00;13.10;;;8.93;;
58260;SDS011;44058;52.898;6.502;2023-01-28T07:48:27;12.10;;;9.03;;
58260;SDS011;44058;52.898;6.502;2023-01-28T07:50:57;11.37;;;9.70;;
58260;SDS011;44058;52.898;6.502;2023-01-28T07:53:23;11.07;;;8.73;;
58260;SDS011;44058;52.898;6.502;2023-01-28T07:55:49;11.60;;;8.50;;
58260;SDS011;44058;52.898;6.502;2023-01-28T07:58:16;12.90;;;8.83;;
58260;SDS011;44058;52.898;6.502;2023-01-28T08:00:42;11.93;;;9.03;;
58260;SDS011;44058;52.898;6.502;2023-01-28T08:03:12;12.17;;;8.87;;
58260;SDS011;44058;52.898;6.502;2023-01-28T08:05:44;12.63;;;9.60;;
58260;SDS011;44058;52.898;6.502;2023-01-28T08:08:10;10.93;;;8.90;;
58260;SDS011;44058;52.898;6.502;2023-01-28T08:10:37;12.13;;;9.53;;
58260;SDS011;44058;52.898;6.502;2023-01-28T08:13:03;12.83;;;10.37;;
58260;SDS011;44058;52.898;6.502;2023-01-28T08:15:29;11.47;;;9.87;;
58260;SDS011;44058;52.898;6.502;2023-01-28T08:17:56;10.50;;;8.63;;
58260;SDS011;44058;52.898;6.502;2023-01-28T08:20:24;11.93;;;8.87;;
58260;SDS011;44058;52.898;6.502;2023-01-28T08:22:50;10.83;;;9.13;;
58260;SDS011;44058;52.898;6.502;2023-01-28T08:25:16;12.00;;;9.17;;
58260;SDS011;44058;52.898;6.502;2023-01-28T08:27:42;12.67;;;9.00;;
58260;SDS011;44058;52.898;6.502;2023-01-28T08:30:08;12.30;;;8.83;;
58260;SDS011;44058;52.898;6.502;2023-01-28T08:32:35;12.77;;;9.53;;
58260;SDS011;44058;52.898;6.502;2023-01-28T08:35:01;10.20;;;8.57;;
58260;SDS011;44058;52.898;6.502;2023-01-28T08:37:27;9.87;;;8.23;;
58260;SDS011;44058;52.898;6.502;2023-01-28T08:39:53;9.80;;;7.90;;
58260;SDS011;44058;52.898;6.502;2023-01-28T08:42:19;10.23;;;8.57;;
58260;SDS011;44058;52.898;6.502;2023-01-28T08:44:45;9.43;;;8.00;;
58260;SDS011;44058;52.898;6.502;2023-01-28T08:47:12;9.33;;;8.10;;
58260;SDS011;44058;52.898;6.502;2023-01-28T08:49:38;8.57;;;7.47;;
58260;SDS011;44058;52.898;6.502;2023-01-28T08:52:05;8.80;;;7.40;;
58260;SDS011;44058;52.898;6.502;2023-01-28T08:54:31;9.97;;;7.00;;
58260;SDS011;44058;52.898;6.502;2023-01-28T08:56:57;8.73;;;7.50;;
58260;SDS011;44058;52.898;6.502;2023-01-28T08:59:23;9.70;;;7.50;;
58260;SDS011;44058;52.898;6.502;2023-01-28T09:01:50;9.37;;;7.27;;
58260;SDS011;44058;52.898;6.502;2023-01-28T09:04:16;9.70;;;7.43;;
58260;SDS011;44058;52.898;6.502;2023-01-28T09:06:42;8.50;;;7.13;;
58260;SDS011;44058;52.898;6.502;2023-01-28T09:09:08;8.73;;;7.00;;
58260;SDS011;44058;52.898;6.502;2023-01-28T09:11:35;8.47;;;7.17;;
58260;SDS011;44058;52.898;6.502;2023-01-28T09:14:01;7.73;;;6.93;;
58260;SDS011;44058;52.898;6.502;2023-01-28T09:16:27;10.77;;;7.13;;
58260;SDS011;44058;52.898;6.502;2023-01-28T09:18:53;7.90;;;7.10;;
58260;SDS011;44058;52.898;6.502;2023-01-28T09:21:19;8.33;;;6.60;;
58260;SDS011;44058;52.898;6.502;2023-01-28T09:23:45;7.33;;;6.30;;
58260;SDS011;44058;52.898;6.502;2023-01-28T09:26:12;7.03;;;6.33;;
58260;SDS011;44058;52.898;6.502;2023-01-28T09:28:38;8.13;;;6.70;;
58260;SDS011;44058;52.898;6.502;2023-01-28T09:31:07;6.87;;;6.17;;
58260;SDS011;44058;52.898;6.502;2023-01-28T09:33:34;8.67;;;7.07;;
58260;SDS011;44058;52.898;6.502;2023-01-28T09:36:01;9.07;;;7.87;;
58260;SDS011;44058;52.898;6.502;2023-01-28T09:38:28;8.00;;;6.80;;
58260;SDS011;44058;52.898;6.502;2023-01-28T09:40:54;8.27;;;6.63;;
58260;SDS011;44058;52.898;6.502;2023-01-28T09:46:05;9.97;;;8.03;;
58260;SDS011;44058;52.898;6.502;2023-01-28T09:48:33;8.93;;;6.67;;
58260;SDS011;44058;52.898;6.502;2023-01-28T09:51:02;7.03;;;6.30;;
58260;SDS011;44058;52.898;6.502;2023-01-28T09:53:32;7.70;;;6.83;;
58260;SDS011;44058;52.898;6.502;2023-01-28T09:56:01;7.60;;;6.80;;
58260;SDS011;44058;52.898;6.502;2023-01-28T09:58:27;7.70;;;6.80;;
58260;SDS011;44058;52.898;6.502;2023-01-28T10:01:03;7.07;;;6.37;;
58260;SDS011;44058;52.898;6.502;2023-01-28T10:11:38;7.30;;;6.60;;
58260;SDS011;44058;52.898;6.502;2023-01-28T10:14:08;7.20;;;6.10;;
58260;SDS011;44058;52.898;6.502;2023-01-28T10:19:25;7.72;;;7.00;;
58260;SDS011;44058;52.898;6.502;2023-01-28T10:22:02;6.82;;;6.13;;
58260;SDS011;44058;52.898;6.502;2023-01-28T10:24:32;7.82;;;6.88;;
58260;SDS011;44058;52.898;6.502;2023-01-28T10:27:02;6.85;;;6.18;;
58260;SDS011;44058;52.898;6.502;2023-01-28T10:29:34;7.03;;;6.32;;
58260;SDS011;44058;52.898;6.502;2023-01-28T10:34:29;9.38;;;7.30;;
58260;SDS011;44058;52.898;6.502;2023-01-28T10:36:56;7.32;;;6.63;;
58260;SDS011;44058;52.898;6.502;2023-01-28T10:39:23;7.38;;;6.18;;
58260;SDS011;44058;52.898;6.502;2023-01-28T10:41:50;7.78;;;6.90;;
58260;SDS011;44058;52.898;6.502;2023-01-28T10:44:33;6.78;;;6.00;;
58260;SDS011;44058;52.898;6.502;2023-01-28T10:47:02;6.60;;;5.90;;
58260;SDS011;44058;52.898;6.502;2023-01-28T10:49:29;7.95;;;6.97;;
58260;SDS011;44058;52.898;6.502;2023-01-28T10:51:56;7.32;;;6.47;;
58260;SDS011;44058;52.898;6.502;2023-01-28T10:54:24;6.60;;;5.93;;
58260;SDS011;44058;52.898;6.502;2023-01-28T10:56:54;6.30;;;5.70;;
58260;SDS011;44058;52.898;6.502;2023-01-28T11:06:50;7.20;;;5.93;;
58260;SDS011;44058;52.898;6.502;2023-01-28T11:09:21;6.55;;;5.70;;
58260;SDS011;44058;52.898;6.502;2023-01-28T11:11:47;7.00;;;6.30;;
58260;SDS011;44058;52.898;6.502;2023-01-28T11:14:20;7.32;;;6.60;;
58260;SDS011;44058;52.898;6.502;2023-01-28T11:16:46;7.15;;;6.45;;
58260;SDS011;44058;52.898;6.502;2023-01-28T11:19:13;6.90;;;6.30;;
58260;SDS011;44058;52.898;6.502;2023-01-28T11:21:40;6.78;;;6.07;;
58260;SDS011;44058;52.898;6.502;2023-01-28T11:24:13;6.90;;;6.20;;
58260;SDS011;44058;52.898;6.502;2023-01-28T11:26:44;7.63;;;6.20;;
58260;SDS011;44058;52.898;6.502;2023-01-28T11:31:50;7.68;;;6.50;;
58260;SDS011;44058;52.898;6.502;2023-01-28T11:34:17;7.55;;;6.32;;
58260;SDS011;44058;52.898;6.502;2023-01-28T11:36:50;7.30;;;6.50;;
58260;SDS011;44058;52.898;6.502;2023-01-28T11:39:19;7.43;;;6.20;;
58260;SDS011;44058;52.898;6.502;2023-01-28T11:41:46;8.82;;;6.30;;
58260;SDS011;44058;52.898;6.502;2023-01-28T11:44:16;8.48;;;6.07;;
58260;SDS011;44058;52.898;6.502;2023-01-28T11:51:57;8.48;;;6.55;;
58260;SDS011;44058;52.898;6.502;2023-01-28T12:04:52;10.73;;;8.18;;
58260;SDS011;44058;52.898;6.502;2023-01-28T12:10:12;11.60;;;7.68;;
58260;SDS011;44058;52.898;6.502;2023-01-28T12:20:25;11.15;;;7.20;;
58260;SDS011;44058;52.898;6.502;2023-01-28T12:31:03;15.18;;;8.82;;
58260;SDS011;44058;52.898;6.502;2023-01-28T12:38:58;13.75;;;8.50;;
58260;SDS011;44058;52.898;6.502;2023-01-28T12:41:28;13.48;;;9.35;;
58260;SDS011;44058;52.898;6.502;2023-01-28T12:43:59;15.95;;;9.07;;
58260;SDS011;44058;52.898;6.502;2023-01-28T12:46:37;15.25;;;9.30;;
58260;SDS011;44058;52.898;6.502;2023-01-28T12:49:23;17.48;;;9.70;;
58260;SDS011;44058;52.898;6.502;2023-01-28T12:51:56;18.40;;;10.88;;
58260;SDS011;44058;52.898;6.502;2023-01-28T12:54:25;19.15;;;10.63;;
58260;SDS011;44058;52.898;6.502;2023-01-28T12:56:53;15.95;;;10.25;;
58260;SDS011;44058;52.898;6.502;2023-01-28T13:06:57;12.75;;;8.05;;
58260;SDS011;44058;52.898;6.502;2023-01-28T13:09:25;12.40;;;8.85;;
58260;SDS011;44058;52.898;6.502;2023-01-28T13:11:53;12.80;;;8.70;;
58260;SDS011;44058;52.898;6.502;2023-01-28T13:16:47;12.25;;;7.60;;
58260;SDS011;44058;52.898;6.502;2023-01-28T13:21:43;11.18;;;8.00;;
58260;SDS011;44058;52.898;6.502;2023-01-28T13:31:51;10.20;;;7.07;;
58260;SDS011;44058;52.898;6.502;2023-01-28T13:36:54;13.00;;;7.65;;
58260;SDS011;44058;52.898;6.502;2023-01-28T13:39:21;11.95;;;8.57;;
58260;SDS011;44058;52.898;6.502;2023-01-28T13:41:51;11.23;;;7.50;;
58260;SDS011;44058;52.898;6.502;2023-01-28T13:46:54;12.18;;;8.35;;
58260;SDS011;44058;52.898;6.502;2023-01-28T13:52:22;12.30;;;8.18;;
58260;SDS011;44058;52.898;6.502;2023-01-28T13:54:58;13.38;;;8.55;;
58260;SDS011;44058;52.898;6.502;2023-01-28T14:16:04;11.05;;;7.65;;
58260;SDS011;44058;52.898;6.502;2023-01-28T14:18:40;11.25;;;7.55;;
58260;SDS011;44058;52.898;6.502;2023-01-28T14:21:11;9.07;;;6.65;;
58260;SDS011;44058;52.898;6.502;2023-01-28T14:23:42;10.98;;;7.47;;
58260;SDS011;44058;52.898;6.502;2023-01-28T14:26:31;12.32;;;7.68;;
58260;SDS011;44058;52.898;6.502;2023-01-28T14:29:04;11.27;;;7.50;;
58260;SDS011;44058;52.898;6.502;2023-01-28T14:31:34;11.10;;;7.93;;
58260;SDS011;44058;52.898;6.502;2023-01-28T14:34:05;11.57;;;8.25;;
58260;SDS011;44058;52.898;6.502;2023-01-28T14:36:40;12.80;;;8.38;;
58260;SDS011;44058;52.898;6.502;2023-01-28T14:39:22;13.55;;;8.30;;
58260;SDS011;44058;52.898;6.502;2023-01-28T14:41:49;14.57;;;8.88;;
58260;SDS011;44058;52.898;6.502;2023-01-28T14:44:30;18.63;;;10.27;;
58260;SDS011;44058;52.898;6.502;2023-01-28T14:47:05;18.05;;;10.63;;
58260;SDS011;44058;52.898;6.502;2023-01-28T14:52:36;19.15;;;11.05;;
58260;SDS011;44058;52.898;6.502;2023-01-28T14:57:51;16.13;;;10.70;;
58260;SDS011;44058;52.898;6.502;2023-01-28T15:00:20;17.48;;;9.95;;
58260;SDS011;44058;52.898;6.502;2023-01-28T15:02:46;13.48;;;7.63;;
58260;SDS011;44058;52.898;6.502;2023-01-28T15:05:20;14.63;;;8.73;;
58260;SDS011;44058;52.898;6.502;2023-01-28T15:07:47;12.45;;;7.57;;
58260;SDS011;44058;52.898;6.502;2023-01-28T15:20:37;10.20;;;7.22;;
58260;SDS011;44058;52.898;6.502;2023-01-28T15:23:05;12.52;;;7.10;;
58260;SDS011;44058;52.898;6.502;2023-01-28T15:25:31;9.43;;;6.80;;
58260;SDS011;44058;52.898;6.502;2023-01-28T15:27:58;9.20;;;6.28;;
58260;SDS011;44058;52.898;6.502;2023-01-28T15:30:30;10.40;;;6.55;;
58260;SDS011;44058;52.898;6.502;2023-01-28T15:33:00;8.90;;;6.13;;
58260;SDS011;44058;52.898;6.502;2023-01-28T15:35:27;9.82;;;6.28;;
58260;SDS011;44058;52.898;6.502;2023-01-28T15:37:53;7.75;;;5.97;;
58260;SDS011;44058;52.898;6.502;2023-01-28T15:40:20;10.52;;;6.78;;
58260;SDS011;44058;52.898;6.502;2023-01-28T15:42:47;11.15;;;6.55;;
58260;SDS011;44058;52.898;6.502;2023-01-28T15:45:17;9.25;;;6.32;;
58260;SDS011;44058;52.898;6.502;2023-01-28T15:47:43;9.77;;;6.40;;
58260;SDS011;44058;52.898;6.502;2023-01-28T15:50:19;8.90;;;6.50;;
58260;SDS011;44058;52.898;6.502;2023-01-28T15:52:46;9.20;;;6.18;;
58260;SDS011;44058;52.898;6.502;2023-01-28T15:55:29;9.93;;;6.85;;
58260;SDS011;44058;52.898;6.502;2023-01-28T15:57:56;12.10;;;8.20;;
58260;SDS011;44058;52.898;6.502;2023-01-28T16:00:22;13.45;;;8.15;;
58260;SDS011;44058;52.898;6.502;2023-01-28T16:02:52;13.05;;;9.20;;
58260;SDS011;44058;52.898;6.502;2023-01-28T16:07:51;15.98;;;9.70;;
58260;SDS011;44058;52.898;6.502;2023-01-28T16:10:22;15.57;;;8.68;;
58260;SDS011;44058;52.898;6.502;2023-01-28T16:13:35;13.40;;;8.43;;
58260;SDS011;44058;52.898;6.502;2023-01-28T16:15:36;14.30;;;8.07;;
58260;SDS011;44058;52.898;6.502;2023-01-28T16:18:03;14.40;;;8.43;;
58260;SDS011;44058;52.898;6.502;2023-01-28T16:20:30;15.40;;;8.82;;
58260;SDS011;44058;52.898;6.502;2023-01-28T16:22:59;16.83;;;10.15;;
58260;SDS011;44058;52.898;6.502;2023-01-28T16:25:30;17.60;;;10.30;;
58260;SDS011;44058;52.898;6.502;2023-01-28T16:27:57;17.40;;;10.15;;
58260;SDS011;44058;52.898;6.502;2023-01-28T16:30:24;17.13;;;9.40;;
58260;SDS011;44058;52.898;6.502;2023-01-28T16:32:50;14.35;;;8.70;;
58260;SDS011;44058;52.898;6.502;2023-01-28T16:35:26;14.75;;;8.55;;
58260;SDS011;44058;52.898;6.502;2023-01-28T16:37:52;15.95;;;9.45;;
58260;SDS011;44058;52.898;6.502;2023-01-28T16:40:19;13.50;;;8.18;;
58260;SDS011;44058;52.898;6.502;2023-01-28T16:42:46;14.95;;;8.27;;
58260;SDS011;44058;52.898;6.502;2023-01-28T16:45:22;12.60;;;7.40;;
58260;SDS011;44058;52.898;6.502;2023-01-28T16:47:48;11.07;;;7.40;;
58260;SDS011;44058;52.898;6.502;2023-01-28T16:50:15;11.18;;;7.05;;
58260;SDS011;44058;52.898;6.502;2023-01-28T16:52:42;12.63;;;6.90;;
58260;SDS011;44058;52.898;6.502;2023-01-28T16:55:10;10.93;;;7.07;;
58260;SDS011;44058;52.898;6.502;2023-01-28T16:57:37;12.20;;;7.75;;
58260;SDS011;44058;52.898;6.502;2023-01-28T17:00:04;11.20;;;6.80;;
58260;SDS011;44058;52.898;6.502;2023-01-28T17:02:30;10.25;;;6.45;;
58260;SDS011;44058;52.898;6.502;2023-01-28T17:04:56;9.80;;;5.90;;
58260;SDS011;44058;52.898;6.502;2023-01-28T17:07:22;10.43;;;6.57;;
58260;SDS011;44058;52.898;6.502;2023-01-28T17:09:49;11.93;;;6.93;;
58260;SDS011;44058;52.898;6.502;2023-01-28T17:12:15;14.90;;;7.95;;
58260;SDS011;44058;52.898;6.502;2023-01-28T17:14:41;11.25;;;6.95;;
58260;SDS011;44058;52.898;6.502;2023-01-28T17:17:08;10.98;;;6.75;;
58260;SDS011;44058;52.898;6.502;2023-01-28T17:19:34;12.17;;;6.93;;
58260;SDS011;44058;52.898;6.502;2023-01-28T17:22:01;16.83;;;8.83;;
58260;SDS011;44058;52.898;6.502;2023-01-28T17:24:28;14.02;;;8.10;;
58260;SDS011;44058;52.898;6.502;2023-01-28T17:26:54;13.93;;;8.38;;
58260;SDS011;44058;52.898;6.502;2023-01-28T17:29:20;13.00;;;8.30;;